sensor_id;sensor_type;location;lat;lon;timestamp;pressure;altitude;pressure_sealevel;temperature;humidity
10460;BME280;54412;51.206;6.888;2022-11-20T00:01:21;100528.63;;;6.02;64.45
10460;BME280;54412;51.206;6.888;2022-11-20T00:03:48;100535.03;;;5.92;64.58
10460;BME280;54412;51.206;6.888;2022-11-20T00:06:17;100522.16;;;6.12;64.23
10460;BME280;54412;51.206;6.888;2022-11-20T00:08:44;100527.88;;;5.99;64.09
10460;BME280;54412;51.206;6.888;2022-11-20T00:11:14;100528.25;;;5.87;64.24
10460;BME280;54412;51.206;6.888;2022-11-20T00:13:40;100526.13;;;5.98;64.22
10460;BME280;54412;51.206;6.888;2022-11-20T00:16:09;100527.81;;;6.00;63.71
10460;BME280;54412;51.206;6.888;2022-11-20T00:18:36;100520.25;;;5.91;63.84
10460;BME280;54412;51.206;6.888;2022-11-20T00:21:11;100526.31;;;5.92;64.42
10460;BME280;54412;51.206;6.888;2022-11-20T00:23:37;100533.53;;;5.85;63.94
10460;BME280;54412;51.206;6.888;2022-11-20T00:26:12;100528.91;;;5.93;63.89
10460;BME280;54412;51.206;6.888;2022-11-20T00:28:39;100528.13;;;5.91;63.95
10460;BME280;54412;51.206;6.888;2022-11-20T00:31:08;100533.53;;;5.85;63.89
10460;BME280;54412;51.206;6.888;2022-11-20T00:33:34;100523.75;;;5.90;63.88
10460;BME280;54412;51.206;6.888;2022-11-20T00:36:03;100518.69;;;5.86;63.83
10460;BME280;54412;51.206;6.888;2022-11-20T00:38:33;100524.03;;;5.83;63.60
10460;BME280;54412;51.206;6.888;2022-11-20T00:41:01;100527.50;;;5.83;63.33
10460;BME280;54412;51.206;6.888;2022-11-20T00:43:28;100516.94;;;5.86;63.58
10460;BME280;54412;51.206;6.888;2022-11-20T00:46:17;100525.53;;;5.90;63.22
10460;BME280;54412;51.206;6.888;2022-11-20T00:48:44;100522.75;;;5.67;64.25
10460;BME280;54412;51.206;6.888;2022-11-20T00:51:16;100530.31;;;5.76;64.13
10460;BME280;54412;51.206;6.888;2022-11-20T00:53:43;100523.38;;;6.02;63.44
10460;BME280;54412;51.206;6.888;2022-11-20T00:56:13;100528.03;;;5.65;64.50
10460;BME280;54412;51.206;6.888;2022-11-20T00:58:43;100524.31;;;5.74;64.45
10460;BME280;54412;51.206;6.888;2022-11-20T01:01:13;100520.88;;;5.72;64.14
10460;BME280;54412;51.206;6.888;2022-11-20T01:03:42;100521.75;;;5.71;63.99
10460;BME280;54412;51.206;6.888;2022-11-20T01:06:35;100517.78;;;5.87;64.16
10460;BME280;54412;51.206;6.888;2022-11-20T01:09:09;100514.28;;;5.88;63.37
10460;BME280;54412;51.206;6.888;2022-11-20T01:11:40;100513.84;;;5.74;64.26
10460;BME280;54412;51.206;6.888;2022-11-20T01:14:11;100511.41;;;5.68;64.50
10460;BME280;54412;51.206;6.888;2022-11-20T01:16:41;100513.41;;;5.87;63.99
10460;BME280;54412;51.206;6.888;2022-11-20T01:19:16;100510.19;;;5.78;64.59
10460;BME280;54412;51.206;6.888;2022-11-20T01:21:44;100504.75;;;5.85;63.86
10460;BME280;54412;51.206;6.888;2022-11-20T01:24:13;100502.06;;;5.87;63.94
10460;BME280;54412;51.206;6.888;2022-11-20T01:26:42;100507.25;;;5.88;63.51
10460;BME280;54412;51.206;6.888;2022-11-20T01:29:16;100503.13;;;6.07;63.66
10460;BME280;54412;51.206;6.888;2022-11-20T01:31:42;100498.69;;;5.83;64.07
10460;BME280;54412;51.206;6.888;2022-11-20T01:34:18;100499.78;;;6.04;63.56
10460;BME280;54412;51.206;6.888;2022-11-20T01:36:45;100509.66;;;5.67;64.50
10460;BME280;54412;51.206;6.888;2022-11-20T01:39:31;100514.91;;;5.67;64.49
10460;BME280;54412;51.206;6.888;2022-11-20T01:41:57;100507.63;;;5.76;64.44
10460;BME280;54412;51.206;6.888;2022-11-20T01:45:01;100506.88;;;5.73;64.46
10460;BME280;54412;51.206;6.888;2022-11-20T01:47:37;100497.03;;;5.81;64.12
10460;BME280;54412;51.206;6.888;2022-11-20T01:50:34;100489.91;;;5.86;64.35
10460;BME280;54412;51.206;6.888;2022-11-20T01:53:05;100494.97;;;5.90;64.16
10460;BME280;54412;51.206;6.888;2022-11-20T01:55:39;100502.69;;;5.95;63.71
10460;BME280;54412;51.206;6.888;2022-11-20T01:58:07;100492.91;;;6.00;63.66
10460;BME280;54412;51.206;6.888;2022-11-20T02:00:33;100496.09;;;5.83;64.11
10460;BME280;54412;51.206;6.888;2022-11-20T02:03:09;100497.03;;;5.81;64.02
10460;BME280;54412;51.206;6.888;2022-11-20T02:06:05;100499.66;;;5.79;63.73
10460;BME280;54412;51.206;6.888;2022-11-20T02:08:35;100485.75;;;5.79;64.04
10460;BME280;54412;51.206;6.888;2022-11-20T02:11:01;100490.72;;;5.60;64.91
10460;BME280;54412;51.206;6.888;2022-11-20T02:13:27;100486.50;;;5.82;64.37
10460;BME280;54412;51.206;6.888;2022-11-20T02:16:20;100486.19;;;5.93;63.77
10460;BME280;54412;51.206;6.888;2022-11-20T02:18:47;100486.25;;;6.16;63.06
10460;BME280;54412;51.206;6.888;2022-11-20T02:21:45;100477.19;;;5.74;64.54
10460;BME280;54412;51.206;6.888;2022-11-20T02:24:18;100472.25;;;5.65;65.09
10460;BME280;54412;51.206;6.888;2022-11-20T02:26:54;100472.53;;;5.83;64.22
10460;BME280;54412;51.206;6.888;2022-11-20T02:29:46;100465.88;;;5.99;63.65
10460;BME280;54412;51.206;6.888;2022-11-20T02:32:30;100462.19;;;5.79;63.98
10460;BME280;54412;51.206;6.888;2022-11-20T02:34:57;100453.31;;;5.84;64.86
10460;BME280;54412;51.206;6.888;2022-11-20T02:37:27;100447.09;;;5.87;65.09
10460;BME280;54412;51.206;6.888;2022-11-20T02:39:56;100447.84;;;5.90;64.24
10460;BME280;54412;51.206;6.888;2022-11-20T02:42:22;100449.78;;;5.58;65.55
10460;BME280;54412;51.206;6.888;2022-11-20T02:44:47;100455.06;;;5.56;65.58
10460;BME280;54412;51.206;6.888;2022-11-20T02:47:13;100457.56;;;5.61;65.37
10460;BME280;54412;51.206;6.888;2022-11-20T02:49:38;100455.94;;;5.30;66.61
10460;BME280;54412;51.206;6.888;2022-11-20T02:52:04;100456.41;;;5.43;66.58
10460;BME280;54412;51.206;6.888;2022-11-20T02:54:30;100456.69;;;5.60;66.07
10460;BME280;54412;51.206;6.888;2022-11-20T02:56:56;100453.28;;;5.58;66.44
10460;BME280;54412;51.206;6.888;2022-11-20T02:59:21;100451.56;;;5.57;66.71
10460;BME280;54412;51.206;6.888;2022-11-20T03:01:47;100451.28;;;5.66;66.28
10460;BME280;54412;51.206;6.888;2022-11-20T03:04:13;100449.50;;;5.67;66.69
10460;BME280;54412;51.206;6.888;2022-11-20T03:06:38;100450.34;;;5.67;66.61
10460;BME280;54412;51.206;6.888;2022-11-20T03:09:04;100455.81;;;5.61;65.97
10460;BME280;54412;51.206;6.888;2022-11-20T03:11:30;100450.00;;;5.52;66.21
10460;BME280;54412;51.206;6.888;2022-11-20T03:13:55;100446.28;;;5.59;65.67
10460;BME280;54412;51.206;6.888;2022-11-20T03:16:23;100447.00;;;5.64;65.78
10460;BME280;54412;51.206;6.888;2022-11-20T03:18:51;100443.50;;;5.63;65.67
10460;BME280;54412;51.206;6.888;2022-11-20T03:21:17;100456.94;;;5.53;65.65
10460;BME280;54412;51.206;6.888;2022-11-20T03:23:43;100451.34;;;5.63;65.06
10460;BME280;54412;51.206;6.888;2022-11-20T03:26:22;100452.53;;;5.55;66.12
10460;BME280;54412;51.206;6.888;2022-11-20T03:28:55;100458.56;;;5.57;65.90
10460;BME280;54412;51.206;6.888;2022-11-20T03:31:24;100447.97;;;5.60;65.51
10460;BME280;54412;51.206;6.888;2022-11-20T03:33:51;100445.81;;;5.72;66.43
10460;BME280;54412;51.206;6.888;2022-11-20T03:36:18;100432.59;;;5.51;66.86
10460;BME280;54412;51.206;6.888;2022-11-20T03:38:44;100438.94;;;5.44;67.48
10460;BME280;54412;51.206;6.888;2022-11-20T03:41:14;100441.31;;;5.51;67.30
10460;BME280;54412;51.206;6.888;2022-11-20T03:43:40;100448.84;;;5.60;67.40
10460;BME280;54412;51.206;6.888;2022-11-20T03:46:07;100450.56;;;5.61;67.03
10460;BME280;54412;51.206;6.888;2022-11-20T03:48:33;100440.72;;;5.43;67.84
10460;BME280;54412;51.206;6.888;2022-11-20T03:51:11;100437.53;;;5.60;67.74
10460;BME280;54412;51.206;6.888;2022-11-20T03:53:39;100436.56;;;5.62;67.39
10460;BME280;54412;51.206;6.888;2022-11-20T03:56:06;100436.97;;;5.76;66.88
10460;BME280;54412;51.206;6.888;2022-11-20T03:58:34;100437.69;;;5.83;66.85
10460;BME280;54412;51.206;6.888;2022-11-20T04:03:36;100444.00;;;5.74;66.86
10460;BME280;54412;51.206;6.888;2022-11-20T04:06:05;100437.94;;;5.74;66.88
10460;BME280;54412;51.206;6.888;2022-11-20T04:08:31;100435.41;;;5.71;66.26
10460;BME280;54412;51.206;6.888;2022-11-20T04:11:26;100436.53;;;5.64;66.00
10460;BME280;54412;51.206;6.888;2022-11-20T04:13:58;100436.09;;;5.77;65.89
10460;BME280;54412;51.206;6.888;2022-11-20T04:16:26;100437.84;;;5.77;65.83
10460;BME280;54412;51.206;6.888;2022-11-20T04:19:00;100439.13;;;5.64;66.10
10460;BME280;54412;51.206;6.888;2022-11-20T04:21:28;100432.00;;;5.69;65.76
10460;BME280;54412;51.206;6.888;2022-11-20T04:23:55;100429.06;;;5.78;65.37
10460;BME280;54412;51.206;6.888;2022-11-20T04:26:23;100430.69;;;5.56;66.22
10460;BME280;54412;51.206;6.888;2022-11-20T04:28:50;100440.81;;;5.92;65.09
10460;BME280;54412;51.206;6.888;2022-11-20T04:31:20;100442.06;;;5.81;65.01
10460;BME280;54412;51.206;6.888;2022-11-20T04:33:46;100444.25;;;5.68;65.78
10460;BME280;54412;51.206;6.888;2022-11-20T04:36:17;100433.66;;;5.71;65.96
10460;BME280;54412;51.206;6.888;2022-11-20T04:38:44;100438.03;;;5.71;65.67
10460;BME280;54412;51.206;6.888;2022-11-20T04:41:16;100433.50;;;5.76;65.19
10460;BME280;54412;51.206;6.888;2022-11-20T04:43:50;100439.75;;;5.72;64.41
10460;BME280;54412;51.206;6.888;2022-11-20T04:46:19;100433.34;;;5.80;65.19
10460;BME280;54412;51.206;6.888;2022-11-20T04:48:46;100429.84;;;5.55;64.97
10460;BME280;54412;51.206;6.888;2022-11-20T04:51:12;100439.84;;;5.69;64.93
10460;BME280;54412;51.206;6.888;2022-11-20T04:53:38;100437.13;;;5.72;65.07
10460;BME280;54412;51.206;6.888;2022-11-20T04:56:07;100438.28;;;5.63;65.22
10460;BME280;54412;51.206;6.888;2022-11-20T04:58:34;100437.63;;;5.57;65.68
10460;BME280;54412;51.206;6.888;2022-11-20T05:01:11;100435.16;;;5.78;66.15
10460;BME280;54412;51.206;6.888;2022-11-20T05:03:38;100442.84;;;5.84;66.66
10460;BME280;54412;51.206;6.888;2022-11-20T05:06:06;100428.22;;;5.77;66.40
10460;BME280;54412;51.206;6.888;2022-11-20T05:08:32;100432.09;;;5.66;66.26
10460;BME280;54412;51.206;6.888;2022-11-20T05:11:07;100433.59;;;5.73;66.42
10460;BME280;54412;51.206;6.888;2022-11-20T05:13:34;100439.69;;;5.73;66.95
10460;BME280;54412;51.206;6.888;2022-11-20T05:16:09;100439.31;;;5.85;65.76
10460;BME280;54412;51.206;6.888;2022-11-20T05:18:36;100438.25;;;5.65;66.44
10460;BME280;54412;51.206;6.888;2022-11-20T05:21:03;100440.25;;;5.57;66.62
10460;BME280;54412;51.206;6.888;2022-11-20T05:23:31;100436.38;;;5.68;66.49
10460;BME280;54412;51.206;6.888;2022-11-20T05:25:58;100430.34;;;5.66;66.66
10460;BME280;54412;51.206;6.888;2022-11-20T05:28:25;100439.91;;;5.67;66.55
10460;BME280;54412;51.206;6.888;2022-11-20T05:30:51;100435.72;;;5.62;66.67
10460;BME280;54412;51.206;6.888;2022-11-20T05:33:17;100436.09;;;5.76;67.01
10460;BME280;54412;51.206;6.888;2022-11-20T05:35:43;100434.16;;;5.82;66.47
10460;BME280;54412;51.206;6.888;2022-11-20T05:38:10;100427.97;;;5.85;66.41
10460;BME280;54412;51.206;6.888;2022-11-20T05:40:36;100425.38;;;5.85;66.21
10460;BME280;54412;51.206;6.888;2022-11-20T05:43:02;100428.66;;;5.91;66.25
10460;BME280;54412;51.206;6.888;2022-11-20T05:45:28;100429.16;;;6.01;66.26
10460;BME280;54412;51.206;6.888;2022-11-20T05:47:57;100428.22;;;5.77;66.61
10460;BME280;54412;51.206;6.888;2022-11-20T05:50:23;100430.69;;;5.82;66.75
10460;BME280;54412;51.206;6.888;2022-11-20T05:52:49;100433.97;;;5.88;66.73
10460;BME280;54412;51.206;6.888;2022-11-20T05:55:14;100432.81;;;5.97;66.73
10460;BME280;54412;51.206;6.888;2022-11-20T05:57:40;100427.31;;;5.78;66.78
10460;BME280;54412;51.206;6.888;2022-11-20T06:00:07;100426.63;;;5.73;66.98
10460;BME280;54412;51.206;6.888;2022-11-20T06:02:35;100432.22;;;5.89;67.21
10460;BME280;54412;51.206;6.888;2022-11-20T06:05:01;100424.91;;;5.98;67.34
10460;BME280;54412;51.206;6.888;2022-11-20T06:07:27;100425.97;;;5.93;67.07
10460;BME280;54412;51.206;6.888;2022-11-20T06:09:52;100422.50;;;5.92;67.21
10460;BME280;54412;51.206;6.888;2022-11-20T06:12:18;100432.97;;;5.92;67.12
10460;BME280;54412;51.206;6.888;2022-11-20T06:14:44;100428.06;;;5.82;67.29
10460;BME280;54412;51.206;6.888;2022-11-20T06:17:09;100428.72;;;5.88;67.51
10460;BME280;54412;51.206;6.888;2022-11-20T06:19:35;100427.25;;;5.80;67.21
10460;BME280;54412;51.206;6.888;2022-11-20T06:22:01;100416.72;;;5.81;67.60
10460;BME280;54412;51.206;6.888;2022-11-20T06:24:26;100422.94;;;5.79;67.95
10460;BME280;54412;51.206;6.888;2022-11-20T06:26:52;100423.59;;;5.85;67.55
10460;BME280;54412;51.206;6.888;2022-11-20T06:29:17;100428.72;;;5.88;67.84
10460;BME280;54412;51.206;6.888;2022-11-20T06:31:43;100432.44;;;5.81;67.45
10460;BME280;54412;51.206;6.888;2022-11-20T06:34:09;100425.50;;;5.80;67.84
10460;BME280;54412;51.206;6.888;2022-11-20T06:36:34;100434.94;;;5.86;67.51
10460;BME280;54412;51.206;6.888;2022-11-20T06:39:00;100435.75;;;5.88;67.80
10460;BME280;54412;51.206;6.888;2022-11-20T06:41:26;100432.59;;;5.77;67.71
10460;BME280;54412;51.206;6.888;2022-11-20T06:43:53;100433.28;;;5.82;67.45
10460;BME280;54412;51.206;6.888;2022-11-20T06:46:20;100431.63;;;6.05;67.26
10460;BME280;54412;51.206;6.888;2022-11-20T06:48:48;100433.66;;;5.97;67.21
10460;BME280;54412;51.206;6.888;2022-11-20T06:51:14;100442.75;;;5.87;67.69
10460;BME280;54412;51.206;6.888;2022-11-20T06:53:40;100430.38;;;6.17;67.56
10460;BME280;54412;51.206;6.888;2022-11-20T06:56:07;100431.22;;;5.93;68.24
10460;BME280;54412;51.206;6.888;2022-11-20T06:58:34;100433.44;;;6.28;67.68
10460;BME280;54412;51.206;6.888;2022-11-20T07:01:06;100433.31;;;6.56;66.44
10460;BME280;54412;51.206;6.888;2022-11-20T07:03:32;100428.25;;;6.26;67.41
10460;BME280;54412;51.206;6.888;2022-11-20T07:06:00;100435.13;;;6.06;67.79
10460;BME280;54412;51.206;6.888;2022-11-20T07:08:27;100436.25;;;5.99;67.51
10460;BME280;54412;51.206;6.888;2022-11-20T07:10:57;100440.72;;;5.95;67.59
10460;BME280;54412;51.206;6.888;2022-11-20T07:13:23;100449.09;;;6.05;67.25
10460;BME280;54412;51.206;6.888;2022-11-20T07:15:49;100450.41;;;5.92;67.71
10460;BME280;54412;51.206;6.888;2022-11-20T07:18:15;100447.16;;;5.59;68.70
10460;BME280;54412;51.206;6.888;2022-11-20T07:20:40;100454.53;;;5.73;68.51
10460;BME280;54412;51.206;6.888;2022-11-20T07:23:06;100455.53;;;5.69;68.50
10460;BME280;54412;51.206;6.888;2022-11-20T07:25:32;100455.34;;;5.21;69.79
10460;BME280;54412;51.206;6.888;2022-11-20T07:27:59;100466.97;;;5.12;70.01
10460;BME280;54412;51.206;6.888;2022-11-20T07:30:27;100467.84;;;5.11;70.09
10460;BME280;54412;51.206;6.888;2022-11-20T07:32:55;100470.38;;;5.42;69.56
10460;BME280;54412;51.206;6.888;2022-11-20T07:35:22;100453.63;;;5.20;69.80
10460;BME280;54412;51.206;6.888;2022-11-20T07:37:48;100456.75;;;5.31;69.36
10460;BME280;54412;51.206;6.888;2022-11-20T07:40:15;100466.47;;;5.27;69.99
10460;BME280;54412;51.206;6.888;2022-11-20T07:42:53;100458.28;;;5.38;69.38
10460;BME280;54412;51.206;6.888;2022-11-20T07:45:21;100466.78;;;5.17;69.94
10460;BME280;54412;51.206;6.888;2022-11-20T07:47:47;100467.50;;;5.22;69.75
10460;BME280;54412;51.206;6.888;2022-11-20T07:50:14;100458.56;;;5.29;69.38
10460;BME280;54412;51.206;6.888;2022-11-20T07:52:43;100451.81;;;5.50;69.42
10460;BME280;54412;51.206;6.888;2022-11-20T07:55:09;100452.97;;;5.41;69.46
10460;BME280;54412;51.206;6.888;2022-11-20T07:57:35;100454.16;;;5.31;69.93
10460;BME280;54412;51.206;6.888;2022-11-20T08:00:03;100442.59;;;5.38;70.05
10460;BME280;54412;51.206;6.888;2022-11-20T08:02:29;100448.09;;;5.57;69.14
10460;BME280;54412;51.206;6.888;2022-11-20T08:04:55;100446.41;;;5.54;69.16
10460;BME280;54412;51.206;6.888;2022-11-20T08:07:20;100447.16;;;5.31;69.81
10460;BME280;54412;51.206;6.888;2022-11-20T08:09:46;100439.31;;;5.59;69.71
10460;BME280;54412;51.206;6.888;2022-11-20T08:12:20;100439.94;;;5.66;69.81
10460;BME280;54412;51.206;6.888;2022-11-20T08:15:06;100425.69;;;5.74;70.33
10460;BME280;54412;51.206;6.888;2022-11-20T08:17:32;100430.78;;;5.79;70.64
10460;BME280;54412;51.206;6.888;2022-11-20T08:19:57;100426.88;;;6.16;70.03
10460;BME280;54412;51.206;6.888;2022-11-20T08:22:23;100436.75;;;6.08;69.95
10460;BME280;54412;51.206;6.888;2022-11-20T08:24:50;100444.41;;;6.14;70.13
10460;BME280;54412;51.206;6.888;2022-11-20T08:27:15;100436.81;;;6.07;70.29
10460;BME280;54412;51.206;6.888;2022-11-20T08:29:41;100446.66;;;6.00;70.46
10460;BME280;54412;51.206;6.888;2022-11-20T08:32:07;100442.97;;;6.06;69.76
10460;BME280;54412;51.206;6.888;2022-11-20T08:34:33;100439.81;;;5.96;69.94
10460;BME280;54412;51.206;6.888;2022-11-20T08:36:58;100453.66;;;6.00;69.52
10460;BME280;54412;51.206;6.888;2022-11-20T08:39:24;100447.59;;;5.98;68.97
10460;BME280;54412;51.206;6.888;2022-11-20T08:41:50;100449.34;;;5.99;69.24
10460;BME280;54412;51.206;6.888;2022-11-20T08:44:15;100450.81;;;5.80;68.58
10460;BME280;54412;51.206;6.888;2022-11-20T08:46:42;100454.81;;;5.91;68.69
10460;BME280;54412;51.206;6.888;2022-11-20T08:49:11;100455.09;;;5.82;67.55
10460;BME280;54412;51.206;6.888;2022-11-20T08:51:38;100457.38;;;5.93;67.51
10460;BME280;54412;51.206;6.888;2022-11-20T08:54:05;100453.50;;;6.04;67.38
10460;BME280;54412;51.206;6.888;2022-11-20T08:56:31;100444.53;;;6.11;67.40
10460;BME280;54412;51.206;6.888;2022-11-20T08:58:57;100443.50;;;5.91;67.55
10460;BME280;54412;51.206;6.888;2022-11-20T09:01:25;100449.34;;;5.99;67.30
10460;BME280;54412;51.206;6.888;2022-11-20T09:03:51;100451.34;;;5.91;67.15
10460;BME280;54412;51.206;6.888;2022-11-20T09:06:17;100459.81;;;5.99;67.50
10460;BME280;54412;51.206;6.888;2022-11-20T09:08:43;100461.63;;;5.97;67.25
10460;BME280;54412;51.206;6.888;2022-11-20T09:11:09;100451.72;;;6.05;67.35
10460;BME280;54412;51.206;6.888;2022-11-20T09:13:36;100448.03;;;6.10;66.75
10460;BME280;54412;51.206;6.888;2022-11-20T09:16:06;100448.59;;;5.95;67.10
10460;BME280;54412;51.206;6.888;2022-11-20T09:18:34;100452.94;;;5.95;66.96
10460;BME280;54412;51.206;6.888;2022-11-20T09:21:06;100437.31;;;5.93;67.26
10460;BME280;54412;51.206;6.888;2022-11-20T09:23:35;100440.44;;;6.03;66.94
10460;BME280;54412;51.206;6.888;2022-11-20T09:26:11;100435.16;;;6.29;66.29
10460;BME280;54412;51.206;6.888;2022-11-20T09:28:37;100433.75;;;6.20;66.68
10460;BME280;54412;51.206;6.888;2022-11-20T09:31:24;100431.94;;;5.96;67.97
10460;BME280;54412;51.206;6.888;2022-11-20T09:33:52;100433.66;;;5.97;67.89
10460;BME280;54412;51.206;6.888;2022-11-20T09:36:18;100429.97;;;6.03;66.38
10460;BME280;54412;51.206;6.888;2022-11-20T09:38:47;100416.63;;;5.86;66.61
10460;BME280;54412;51.206;6.888;2022-11-20T09:47:25;100419.34;;;6.07;65.80
10460;BME280;54412;51.206;6.888;2022-11-20T09:52:45;100417.13;;;5.97;66.08
10460;BME280;54412;51.206;6.888;2022-11-20T09:55:14;100405.44;;;6.30;65.08
10460;BME280;54412;51.206;6.888;2022-11-20T09:57:46;100415.75;;;6.81;63.28
10460;BME280;54412;51.206;6.888;2022-11-20T10:00:15;100421.94;;;6.80;63.15
10460;BME280;54412;51.206;6.888;2022-11-20T10:02:48;100417.28;;;6.86;63.79
10460;BME280;54412;51.206;6.888;2022-11-20T10:08:22;100433.44;;;6.53;63.90
10460;BME280;54412;51.206;6.888;2022-11-20T10:10:53;100425.63;;;6.51;63.88
10460;BME280;54412;51.206;6.888;2022-11-20T10:13:49;100427.31;;;6.52;64.07
10460;BME280;54412;51.206;6.888;2022-11-20T10:17:00;100412.22;;;6.59;63.85
10460;BME280;54412;51.206;6.888;2022-11-20T10:19:55;100403.13;;;6.46;63.88
10460;BME280;54412;51.206;6.888;2022-11-20T10:25:19;100402.66;;;6.58;63.96
10460;BME280;54412;51.206;6.888;2022-11-20T10:27:56;100397.31;;;6.38;63.54
10460;BME280;54412;51.206;6.888;2022-11-20T10:30:25;100395.13;;;6.25;63.90
10460;BME280;54412;51.206;6.888;2022-11-20T10:33:11;100391.03;;;6.18;63.74
10460;BME280;54412;51.206;6.888;2022-11-20T10:36:07;100388.47;;;6.17;63.92
10460;BME280;54412;51.206;6.888;2022-11-20T10:38:40;100382.84;;;6.27;63.62
10460;BME280;54412;51.206;6.888;2022-11-20T10:41:38;100375.53;;;6.12;64.81
10460;BME280;54412;51.206;6.888;2022-11-20T10:44:11;100376.72;;;6.04;64.80
10460;BME280;54412;51.206;6.888;2022-11-20T10:46:43;100364.25;;;6.33;64.51
10460;BME280;54412;51.206;6.888;2022-11-20T10:49:16;100366.22;;;6.28;64.49
10460;BME280;54412;51.206;6.888;2022-11-20T10:52:13;100368.69;;;6.31;64.43
10460;BME280;54412;51.206;6.888;2022-11-20T10:58:04;100358.00;;;6.61;63.03
10460;BME280;54412;51.206;6.888;2022-11-20T11:00:35;100354.84;;;6.29;64.00
10460;BME280;54412;51.206;6.888;2022-11-20T11:03:01;100342.22;;;6.39;63.61
10460;BME280;54412;51.206;6.888;2022-11-20T11:05:48;100345.19;;;6.30;63.99
10460;BME280;54412;51.206;6.888;2022-11-20T11:08:19;100339.63;;;6.39;64.00
10460;BME280;54412;51.206;6.888;2022-11-20T11:11:00;100338.31;;;6.51;64.04
10460;BME280;54412;51.206;6.888;2022-11-20T11:13:30;100337.56;;;6.47;64.37
10460;BME280;54412;51.206;6.888;2022-11-20T11:15:56;100339.53;;;6.42;63.94
10460;BME280;54412;51.206;6.888;2022-11-20T11:18:34;100325.09;;;6.30;64.71
10460;BME280;54412;51.206;6.888;2022-11-20T11:21:03;100326.56;;;6.38;64.34
10460;BME280;54412;51.206;6.888;2022-11-20T11:23:41;100317.81;;;6.39;64.86
10460;BME280;54412;51.206;6.888;2022-11-20T11:26:23;100324.16;;;6.33;64.84
10460;BME280;54412;51.206;6.888;2022-11-20T11:29:04;100313.50;;;6.59;64.71
10460;BME280;54412;51.206;6.888;2022-11-20T11:31:34;100312.63;;;6.37;64.90
10460;BME280;54412;51.206;6.888;2022-11-20T11:34:16;100305.84;;;6.55;64.60
10460;BME280;54412;51.206;6.888;2022-11-20T11:36:57;100299.50;;;6.39;65.02
10460;BME280;54412;51.206;6.888;2022-11-20T11:39:25;100284.31;;;6.47;65.23
10460;BME280;54412;51.206;6.888;2022-11-20T11:41:52;100291.44;;;6.43;65.23
10460;BME280;54412;51.206;6.888;2022-11-20T11:44:31;100282.94;;;6.60;64.80
10460;BME280;54412;51.206;6.888;2022-11-20T11:47:26;100272.09;;;6.47;65.72
10460;BME280;54412;51.206;6.888;2022-11-20T11:55:54;100263.50;;;6.65;65.38
10460;BME280;54412;51.206;6.888;2022-11-20T11:58:49;100255.69;;;6.64;65.77
10460;BME280;54412;51.206;6.888;2022-11-20T12:01:57;100246.19;;;6.83;64.74
10460;BME280;54412;51.206;6.888;2022-11-20T12:04:45;100244.78;;;6.74;64.82
10460;BME280;54412;51.206;6.888;2022-11-20T12:07:39;100247.41;;;6.74;64.85
10460;BME280;54412;51.206;6.888;2022-11-20T12:10:34;100243.94;;;6.52;65.90
10460;BME280;54412;51.206;6.888;2022-11-20T12:15:59;100237.47;;;6.61;65.71
10460;BME280;54412;51.206;6.888;2022-11-20T12:18:27;100225.94;;;6.86;65.01
10460;BME280;54412;51.206;6.888;2022-11-20T12:21:11;100229.13;;;6.93;64.94
10460;BME280;54412;51.206;6.888;2022-11-20T12:29:52;100223.09;;;6.49;66.58
10460;BME280;54412;51.206;6.888;2022-11-20T12:32:59;100219.53;;;6.72;66.35
10460;BME280;54412;51.206;6.888;2022-11-20T12:38:43;100216.69;;;6.78;66.27
10460;BME280;54412;51.206;6.888;2022-11-20T12:45:10;100207.38;;;6.91;66.39
10460;BME280;54412;51.206;6.888;2022-11-20T12:59:32;100173.63;;;6.63;67.46
10460;BME280;54412;51.206;6.888;2022-11-20T13:05:30;100179.00;;;6.80;67.97
10460;BME280;54412;51.206;6.888;2022-11-20T13:08:00;100162.34;;;6.61;68.18
10460;BME280;54412;51.206;6.888;2022-11-20T13:10:38;100157.94;;;6.82;68.44
10460;BME280;54412;51.206;6.888;2022-11-20T13:13:40;100144.78;;;7.03;68.81
10460;BME280;54412;51.206;6.888;2022-11-20T13:16:30;100134.97;;;6.88;68.77
10460;BME280;54412;51.206;6.888;2022-11-20T13:19:04;100126.19;;;6.89;69.62
10460;BME280;54412;51.206;6.888;2022-11-20T13:21:43;100125.13;;;6.73;70.60
10460;BME280;54412;51.206;6.888;2022-11-20T13:24:25;100132.66;;;6.81;70.72
10460;BME280;54412;51.206;6.888;2022-11-20T13:29:44;100124.66;;;6.84;70.75
10460;BME280;54412;51.206;6.888;2022-11-20T13:32:20;100102.00;;;6.83;70.83
10460;BME280;54412;51.206;6.888;2022-11-20T13:35:01;100099.53;;;6.80;71.39
10460;BME280;54412;51.206;6.888;2022-11-20T13:37:32;100105.16;;;6.71;71.42
10460;BME280;54412;51.206;6.888;2022-11-20T13:42:55;100099.38;;;6.63;72.53
10460;BME280;54412;51.206;6.888;2022-11-20T13:45:32;100096.50;;;6.69;72.73
10460;BME280;54412;51.206;6.888;2022-11-20T13:48:04;100087.06;;;6.85;72.59
10460;BME280;54412;51.206;6.888;2022-11-20T13:57:09;100067.22;;;6.79;71.74
10460;BME280;54412;51.206;6.888;2022-11-20T14:02:20;100061.75;;;6.84;71.56
10460;BME280;54412;51.206;6.888;2022-11-20T14:04:51;100053.25;;;6.99;71.47
10460;BME280;54412;51.206;6.888;2022-11-20T14:07:21;100046.00;;;7.04;71.78
10460;BME280;54412;51.206;6.888;2022-11-20T14:09:54;100052.75;;;7.09;71.29
10460;BME280;54412;51.206;6.888;2022-11-20T14:12:27;100051.28;;;6.84;71.94
10460;BME280;54412;51.206;6.888;2022-11-20T14:14:54;100043.56;;;6.81;72.91
10460;BME280;54412;51.206;6.888;2022-11-20T14:17:35;100035.66;;;7.01;71.97
10460;BME280;54412;51.206;6.888;2022-11-20T14:20:11;100032.22;;;7.19;71.58
10460;BME280;54412;51.206;6.888;2022-11-20T14:22:38;100017.69;;;7.12;71.13
10460;BME280;54412;51.206;6.888;2022-11-20T14:27:45;100013.41;;;7.09;71.16
10460;BME280;54412;51.206;6.888;2022-11-20T14:30:23;100007.81;;;6.98;71.25
10460;BME280;54412;51.206;6.888;2022-11-20T14:32:51;100004.66;;;7.10;71.30
10460;BME280;54412;51.206;6.888;2022-11-20T14:35:26;99995.28;;;7.05;72.25
10460;BME280;54412;51.206;6.888;2022-11-20T14:37:53;100003.88;;;7.08;71.75